sensor_id;sensor_type;location;lat;lon;timestamp;pressure;altitude;pressure_sealevel;temperature;humidity
10978;BME280;5542;48.272;10.794;2023-01-04T00:00:23;96985.94;;;3.48;92.09
10978;BME280;5542;48.272;10.794;2023-01-04T00:02:49;96994.09;;;3.53;92.09
10978;BME280;5542;48.272;10.794;2023-01-04T00:05:16;96985.97;;;3.56;92.32
10978;BME280;5542;48.272;10.794;2023-01-04T00:07:42;96982.91;;;3.60;92.05
10978;BME280;5542;48.272;10.794;2023-01-04T00:10:09;96981.16;;;3.61;91.74
10978;BME280;5542;48.272;10.794;2023-01-04T00:12:35;96982.56;;;3.55;92.06
10978;BME280;5542;48.272;10.794;2023-01-04T00:15:04;96979.00;;;3.56;92.51
10978;BME280;5542;48.272;10.794;2023-01-04T00:17:31;96976.09;;;3.59;92.56
10978;BME280;5542;48.272;10.794;2023-01-04T00:19:58;96977.56;;;3.62;92.67
10978;BME280;5542;48.272;10.794;2023-01-04T00:22:25;96962.63;;;3.64;92.74
10978;BME280;5542;48.272;10.794;2023-01-04T00:24:51;96964.25;;;3.65;92.93
10978;BME280;5542;48.272;10.794;2023-01-04T00:27:18;96962.31;;;3.67;93.16
10978;BME280;5542;48.272;10.794;2023-01-04T00:29:44;96956.78;;;3.70;93.86
10978;BME280;5542;48.272;10.794;2023-01-04T00:32:12;96955.03;;;3.79;94.43
10978;BME280;5542;48.272;10.794;2023-01-04T00:34:39;96948.03;;;3.79;95.43
10978;BME280;5542;48.272;10.794;2023-01-04T00:37:05;96948.88;;;3.80;95.83
10978;BME280;5542;48.272;10.794;2023-01-04T00:39:32;96952.31;;;3.89;96.14
10978;BME280;5542;48.272;10.794;2023-01-04T00:41:59;96937.72;;;3.96;96.71
10978;BME280;5542;48.272;10.794;2023-01-04T00:44:33;96928.16;;;4.13;97.07
10978;BME280;5542;48.272;10.794;2023-01-04T00:47:01;96927.34;;;4.12;97.68
10978;BME280;5542;48.272;10.794;2023-01-04T00:49:30;96931.13;;;4.26;98.12
10978;BME280;5542;48.272;10.794;2023-01-04T00:51:57;96928.41;;;4.27;98.75
10978;BME280;5542;48.272;10.794;2023-01-04T00:54:24;96923.66;;;4.23;99.22
10978;BME280;5542;48.272;10.794;2023-01-04T00:56:50;96924.81;;;4.36;99.60
10978;BME280;5542;48.272;10.794;2023-01-04T00:59:18;96931.97;;;4.34;99.83
10978;BME280;5542;48.272;10.794;2023-01-04T01:01:46;96932.47;;;4.38;100.00
10978;BME280;5542;48.272;10.794;2023-01-04T01:04:15;96937.69;;;4.46;100.00
10978;BME280;5542;48.272;10.794;2023-01-04T01:06:43;96927.94;;;4.48;100.00
10978;BME280;5542;48.272;10.794;2023-01-04T01:09:10;96924.34;;;4.49;100.00
10978;BME280;5542;48.272;10.794;2023-01-04T01:11:37;96926.31;;;4.55;100.00
10978;BME280;5542;48.272;10.794;2023-01-04T01:14:05;96925.50;;;4.63;100.00
10978;BME280;5542;48.272;10.794;2023-01-04T01:16:32;96919.31;;;4.56;100.00
10978;BME280;5542;48.272;10.794;2023-01-04T01:18:58;96922.25;;;4.53;100.00
10978;BME280;5542;48.272;10.794;2023-01-04T01:21:26;96919.13;;;4.49;100.00
10978;BME280;5542;48.272;10.794;2023-01-04T01:23:54;96926.31;;;4.47;100.00
10978;BME280;5542;48.272;10.794;2023-01-04T01:26:23;96921.09;;;4.47;100.00
10978;BME280;5542;48.272;10.794;2023-01-04T01:28:51;96920.44;;;4.45;100.00
10978;BME280;5542;48.272;10.794;2023-01-04T01:31:19;96914.41;;;4.45;100.00
10978;BME280;5542;48.272;10.794;2023-01-04T01:33:47;96917.00;;;4.45;100.00
10978;BME280;5542;48.272;10.794;2023-01-04T01:36:16;96918.16;;;4.42;100.00
10978;BME280;5542;48.272;10.794;2023-01-04T01:38:43;96914.38;;;4.36;100.00
10978;BME280;5542;48.272;10.794;2023-01-04T01:41:16;96910.81;;;4.38;100.00
10978;BME280;5542;48.272;10.794;2023-01-04T01:43:49;96909.34;;;4.35;100.00
10978;BME280;5542;48.272;10.794;2023-01-04T01:46:18;96902.69;;;4.32;100.00
10978;BME280;5542;48.272;10.794;2023-01-04T01:48:47;96913.75;;;4.34;98.98
10978;BME280;5542;48.272;10.794;2023-01-04T01:51:15;96920.25;;;4.30;98.61
10978;BME280;5542;48.272;10.794;2023-01-04T01:53:44;96912.09;;;4.25;98.35
10978;BME280;5542;48.272;10.794;2023-01-04T01:56:15;96906.56;;;4.20;98.22
10978;BME280;5542;48.272;10.794;2023-01-04T01:58:46;96911.13;;;4.18;98.05
10978;BME280;5542;48.272;10.794;2023-01-04T02:01:16;96901.00;;;4.15;98.00
10978;BME280;5542;48.272;10.794;2023-01-04T02:03:43;96904.91;;;4.11;97.73
10978;BME280;5542;48.272;10.794;2023-01-04T02:06:11;96899.88;;;4.09;97.78
10978;BME280;5542;48.272;10.794;2023-01-04T02:08:40;96896.59;;;4.07;97.61
10978;BME280;5542;48.272;10.794;2023-01-04T02:11:07;96896.75;;;4.06;97.14
10978;BME280;5542;48.272;10.794;2023-01-04T02:13:36;96886.47;;;3.96;96.95
10978;BME280;5542;48.272;10.794;2023-01-04T02:16:28;96895.22;;;3.87;96.49
10978;BME280;5542;48.272;10.794;2023-01-04T02:19:04;96899.63;;;3.87;96.39
10978;BME280;5542;48.272;10.794;2023-01-04T02:21:42;96892.63;;;3.87;96.11
10978;BME280;5542;48.272;10.794;2023-01-04T02:24:32;96890.50;;;3.82;95.86
10978;BME280;5542;48.272;10.794;2023-01-04T02:27:37;96889.38;;;3.85;95.34
10978;BME280;5542;48.272;10.794;2023-01-04T02:30:28;96882.97;;;3.71;94.91
10978;BME280;5542;48.272;10.794;2023-01-04T02:33:10;96890.59;;;3.65;94.67
10978;BME280;5542;48.272;10.794;2023-01-04T02:35:42;96881.16;;;3.64;94.79
10978;BME280;5542;48.272;10.794;2023-01-04T02:38:19;96881.31;;;3.62;94.49
10978;BME280;5542;48.272;10.794;2023-01-04T02:40:55;96888.16;;;3.63;94.04
10978;BME280;5542;48.272;10.794;2023-01-04T02:43:30;96885.25;;;3.66;93.41
10978;BME280;5542;48.272;10.794;2023-01-04T02:46:20;96890.22;;;3.59;93.38
10978;BME280;5542;48.272;10.794;2023-01-04T02:48:50;96894.13;;;3.55;92.89
10978;BME280;5542;48.272;10.794;2023-01-04T02:51:35;96883.41;;;3.58;92.45
10978;BME280;5542;48.272;10.794;2023-01-04T02:54:06;96879.03;;;3.59;91.79
10978;BME280;5542;48.272;10.794;2023-01-04T02:56:52;96884.53;;;3.56;91.72
10978;BME280;5542;48.272;10.794;2023-01-04T02:59:35;96879.13;;;3.49;91.59
10978;BME280;5542;48.272;10.794;2023-01-04T03:02:14;96873.94;;;3.49;91.54
10978;BME280;5542;48.272;10.794;2023-01-04T03:05:12;96876.81;;;3.38;91.03
10978;BME280;5542;48.272;10.794;2023-01-04T03:08:01;96871.88;;;3.27;91.20
10978;BME280;5542;48.272;10.794;2023-01-04T03:10:36;96876.94;;;3.28;91.13
10978;BME280;5542;48.272;10.794;2023-01-04T03:13:10;96873.66;;;3.26;91.06
10978;BME280;5542;48.272;10.794;2023-01-04T03:15:38;96870.91;;;3.28;90.91
10978;BME280;5542;48.272;10.794;2023-01-04T03:18:12;96867.94;;;3.23;90.52
10978;BME280;5542;48.272;10.794;2023-01-04T03:20:43;96867.75;;;3.16;90.54
10978;BME280;5542;48.272;10.794;2023-01-04T03:23:14;96863.31;;;3.08;90.69
10978;BME280;5542;48.272;10.794;2023-01-04T03:26:02;96861.44;;;3.19;89.75
10978;BME280;5542;48.272;10.794;2023-01-04T03:28:48;96861.75;;;3.16;90.29
10978;BME280;5542;48.272;10.794;2023-01-04T03:31:36;96864.28;;;3.07;91.11
10978;BME280;5542;48.272;10.794;2023-01-04T03:34:22;96866.88;;;3.07;91.60
10978;BME280;5542;48.272;10.794;2023-01-04T03:37:14;96865.63;;;3.12;92.05
10978;BME280;5542;48.272;10.794;2023-01-04T03:39:59;96863.25;;;3.26;93.95
10978;BME280;5542;48.272;10.794;2023-01-04T03:42:55;96847.75;;;3.43;95.16
10978;BME280;5542;48.272;10.794;2023-01-04T03:45:45;96844.97;;;3.44;95.79
10978;BME280;5542;48.272;10.794;2023-01-04T03:48:35;96848.09;;;3.56;97.14
10978;BME280;5542;48.272;10.794;2023-01-04T03:51:09;96846.91;;;3.76;97.56
10978;BME280;5542;48.272;10.794;2023-01-04T03:53:45;96845.53;;;3.64;98.47
10978;BME280;5542;48.272;10.794;2023-01-04T03:56:14;96842.03;;;3.81;99.57
10978;BME280;5542;48.272;10.794;2023-01-04T03:58:42;96838.13;;;3.85;100.00
10978;BME280;5542;48.272;10.794;2023-01-04T04:01:09;96832.78;;;3.95;100.00
10978;BME280;5542;48.272;10.794;2023-01-04T04:03:35;96827.91;;;3.92;100.00
10978;BME280;5542;48.272;10.794;2023-01-04T04:06:19;96829.84;;;3.98;100.00
10978;BME280;5542;48.272;10.794;2023-01-04T04:09:05;96826.13;;;4.01;100.00
10978;BME280;5542;48.272;10.794;2023-01-04T04:11:31;96822.41;;;4.11;100.00
10978;BME280;5542;48.272;10.794;2023-01-04T04:13:58;96823.69;;;4.07;100.00
10978;BME280;5542;48.272;10.794;2023-01-04T04:16:26;96818.47;;;4.07;100.00
10978;BME280;5542;48.272;10.794;2023-01-04T04:18:53;96821.44;;;4.04;100.00
10978;BME280;5542;48.272;10.794;2023-01-04T04:21:20;96824.34;;;4.09;100.00
10978;BME280;5542;48.272;10.794;2023-01-04T04:23:46;96816.69;;;4.00;100.00
10978;BME280;5542;48.272;10.794;2023-01-04T04:26:15;96819.63;;;3.97;100.00
10978;BME280;5542;48.272;10.794;2023-01-04T04:28:42;96816.84;;;3.98;100.00
10978;BME280;5542;48.272;10.794;2023-01-04T04:31:08;96809.19;;;3.97;100.00
10978;BME280;5542;48.272;10.794;2023-01-04T04:33:35;96815.22;;;3.97;100.00
10978;BME280;5542;48.272;10.794;2023-01-04T04:36:02;96812.13;;;4.02;100.00
10978;BME280;5542;48.272;10.794;2023-01-04T04:38:28;96817.19;;;4.11;100.00
10978;BME280;5542;48.272;10.794;2023-01-04T04:40:55;96809.06;;;4.06;100.00
10978;BME280;5542;48.272;10.794;2023-01-04T04:43:40;96809.22;;;4.05;100.00
10978;BME280;5542;48.272;10.794;2023-01-04T04:46:07;96807.25;;;4.07;100.00
10978;BME280;5542;48.272;10.794;2023-01-04T04:48:34;96811.66;;;4.06;100.00
10978;BME280;5542;48.272;10.794;2023-01-04T04:51:00;96806.28;;;4.08;100.00
10978;BME280;5542;48.272;10.794;2023-01-04T04:53:27;96793.28;;;4.16;100.00
10978;BME280;5542;48.272;10.794;2023-01-04T04:55:53;96798.00;;;4.21;100.00
10978;BME280;5542;48.272;10.794;2023-01-04T04:58:20;96807.91;;;4.17;100.00
10978;BME280;5542;48.272;10.794;2023-01-04T05:00:48;96806.78;;;4.20;100.00
10978;BME280;5542;48.272;10.794;2023-01-04T05:03:15;96804.50;;;4.17;100.00
10978;BME280;5542;48.272;10.794;2023-01-04T05:05:41;96802.09;;;4.23;100.00
10978;BME280;5542;48.272;10.794;2023-01-04T05:08:08;96802.06;;;4.15;100.00
10978;BME280;5542;48.272;10.794;2023-01-04T05:10:35;96813.78;;;4.11;100.00
10978;BME280;5542;48.272;10.794;2023-01-04T05:13:02;96804.66;;;4.15;100.00
10978;BME280;5542;48.272;10.794;2023-01-04T05:15:31;96802.56;;;4.27;100.00
10978;BME280;5542;48.272;10.794;2023-01-04T05:18:00;96799.47;;;4.31;100.00
10978;BME280;5542;48.272;10.794;2023-01-04T05:20:27;96800.47;;;4.47;99.95
10978;BME280;5542;48.272;10.794;2023-01-04T05:22:54;96791.34;;;4.43;100.00
10978;BME280;5542;48.272;10.794;2023-01-04T05:25:20;96788.06;;;4.49;100.00
10978;BME280;5542;48.272;10.794;2023-01-04T05:27:47;96791.16;;;4.44;100.00
10978;BME280;5542;48.272;10.794;2023-01-04T05:30:14;96794.91;;;4.50;100.00
10978;BME280;5542;48.272;10.794;2023-01-04T05:33:01;96798.63;;;4.55;100.00
10978;BME280;5542;48.272;10.794;2023-01-04T05:35:28;96799.31;;;4.57;100.00
10978;BME280;5542;48.272;10.794;2023-01-04T05:37:54;96796.88;;;4.48;100.00
10978;BME280;5542;48.272;10.794;2023-01-04T05:40:21;96794.28;;;4.56;100.00
10978;BME280;5542;48.272;10.794;2023-01-04T05:42:48;96798.16;;;4.60;100.00
10978;BME280;5542;48.272;10.794;2023-01-04T05:45:15;96787.41;;;4.55;100.00
10978;BME280;5542;48.272;10.794;2023-01-04T05:47:43;96791.94;;;4.69;100.00
10978;BME280;5542;48.272;10.794;2023-01-04T05:50:11;96791.63;;;4.64;100.00
10978;BME280;5542;48.272;10.794;2023-01-04T05:52:38;96790.16;;;4.70;100.00
10978;BME280;5542;48.272;10.794;2023-01-04T05:55:05;96786.41;;;4.80;100.00
10978;BME280;5542;48.272;10.794;2023-01-04T05:57:31;96780.84;;;4.83;100.00
10978;BME280;5542;48.272;10.794;2023-01-04T05:59:58;96779.72;;;4.86;100.00
10978;BME280;5542;48.272;10.794;2023-01-04T06:02:27;96780.72;;;4.77;100.00
10978;BME280;5542;48.272;10.794;2023-01-04T06:04:54;96780.53;;;4.78;99.98
10978;BME280;5542;48.272;10.794;2023-01-04T06:07:22;96785.28;;;4.75;99.56
10978;BME280;5542;48.272;10.794;2023-01-04T06:09:49;96773.69;;;4.85;99.47
10978;BME280;5542;48.272;10.794;2023-01-04T06:12:16;96778.72;;;4.87;99.53
10978;BME280;5542;48.272;10.794;2023-01-04T06:14:42;96773.63;;;5.02;98.50
10978;BME280;5542;48.272;10.794;2023-01-04T06:17:09;96774.63;;;4.93;98.75
10978;BME280;5542;48.272;10.794;2023-01-04T06:19:35;96772.22;;;4.91;98.64
10978;BME280;5542;48.272;10.794;2023-01-04T06:22:02;96763.41;;;4.92;98.24
10978;BME280;5542;48.272;10.794;2023-01-04T06:24:30;96777.91;;;4.95;98.25
10978;BME280;5542;48.272;10.794;2023-01-04T06:26:58;96766.47;;;5.04;97.68
10978;BME280;5542;48.272;10.794;2023-01-04T06:29:24;96770.72;;;4.97;97.45
10978;BME280;5542;48.272;10.794;2023-01-04T06:31:51;96774.81;;;4.83;98.10
10978;BME280;5542;48.272;10.794;2023-01-04T06:34:18;96767.81;;;4.83;98.01
10978;BME280;5542;48.272;10.794;2023-01-04T06:36:44;96772.00;;;5.01;96.89
10978;BME280;5542;48.272;10.794;2023-01-04T06:39:11;96770.72;;;4.88;97.44
10978;BME280;5542;48.272;10.794;2023-01-04T06:41:39;96770.91;;;4.87;97.24
10978;BME280;5542;48.272;10.794;2023-01-04T06:44:06;96763.59;;;4.74;97.93
10978;BME280;5542;48.272;10.794;2023-01-04T06:46:32;96772.72;;;4.78;97.71
10978;BME280;5542;48.272;10.794;2023-01-04T06:48:59;96775.31;;;4.86;96.99
10978;BME280;5542;48.272;10.794;2023-01-04T06:51:25;96768.13;;;4.97;97.02
10978;BME280;5542;48.272;10.794;2023-01-04T06:53:52;96765.19;;;4.92;95.95
10978;BME280;5542;48.272;10.794;2023-01-04T06:56:19;96763.09;;;4.79;96.80
10978;BME280;5542;48.272;10.794;2023-01-04T06:58:47;96768.31;;;4.79;97.25
10978;BME280;5542;48.272;10.794;2023-01-04T07:01:13;96767.31;;;4.88;96.33
10978;BME280;5542;48.272;10.794;2023-01-04T07:03:40;96766.50;;;4.87;96.60
10978;BME280;5542;48.272;10.794;2023-01-04T07:06:07;96762.25;;;4.95;96.52
10978;BME280;5542;48.272;10.794;2023-01-04T07:08:35;96755.06;;;5.05;95.78
10978;BME280;5542;48.272;10.794;2023-01-04T07:11:01;96752.16;;;4.92;95.98
10978;BME280;5542;48.272;10.794;2023-01-04T07:13:28;96756.88;;;4.96;96.07
10978;BME280;5542;48.272;10.794;2023-01-04T07:15:56;96751.22;;;4.84;96.51
10978;BME280;5542;48.272;10.794;2023-01-04T07:18:22;96761.31;;;4.79;97.38
10978;BME280;5542;48.272;10.794;2023-01-04T07:20:49;96761.28;;;4.87;97.17
10978;BME280;5542;48.272;10.794;2023-01-04T07:23:15;96757.69;;;4.88;96.58
10978;BME280;5542;48.272;10.794;2023-01-04T07:25:42;96757.38;;;4.83;96.68
10978;BME280;5542;48.272;10.794;2023-01-04T07:28:09;96754.16;;;4.81;96.97
10978;BME280;5542;48.272;10.794;2023-01-04T07:30:35;96758.56;;;4.81;97.57
10978;BME280;5542;48.272;10.794;2023-01-04T07:33:03;96749.06;;;4.88;97.67
10978;BME280;5542;48.272;10.794;2023-01-04T07:35:30;96743.41;;;4.84;97.71
10978;BME280;5542;48.272;10.794;2023-01-04T07:37:56;96737.13;;;5.02;96.96
10978;BME280;5542;48.272;10.794;2023-01-04T07:40:23;96736.63;;;5.06;96.53
10978;BME280;5542;48.272;10.794;2023-01-04T07:42:55;96722.44;;;5.09;96.47
10978;BME280;5542;48.272;10.794;2023-01-04T07:45:22;96734.88;;;4.99;96.89
10978;BME280;5542;48.272;10.794;2023-01-04T07:47:49;96733.34;;;5.12;96.62
10978;BME280;5542;48.272;10.794;2023-01-04T07:50:17;96736.44;;;5.08;96.69
10978;BME280;5542;48.272;10.794;2023-01-04T07:52:43;96737.41;;;5.15;96.97
10978;BME280;5542;48.272;10.794;2023-01-04T07:55:10;96736.44;;;5.08;97.54
10978;BME280;5542;48.272;10.794;2023-01-04T07:57:37;96731.09;;;5.40;96.76
10978;BME280;5542;48.272;10.794;2023-01-04T08:00:04;96735.69;;;5.38;96.82
10978;BME280;5542;48.272;10.794;2023-01-04T08:02:31;96731.75;;;5.43;96.57
10978;BME280;5542;48.272;10.794;2023-01-04T08:04:57;96732.22;;;5.46;96.74
10978;BME280;5542;48.272;10.794;2023-01-04T08:07:25;96733.16;;;5.53;97.38
10978;BME280;5542;48.272;10.794;2023-01-04T08:09:52;96732.09;;;5.71;95.68
10978;BME280;5542;48.272;10.794;2023-01-04T08:12:19;96729.00;;;5.67;97.07
10978;BME280;5542;48.272;10.794;2023-01-04T08:14:46;96723.31;;;5.86;95.75
10978;BME280;5542;48.272;10.794;2023-01-04T08:17:12;96723.94;;;5.88;95.15
10978;BME280;5542;48.272;10.794;2023-01-04T08:19:39;96725.59;;;5.89;94.88
10978;BME280;5542;48.272;10.794;2023-01-04T08:22:05;96726.91;;;5.94;93.71
10978;BME280;5542;48.272;10.794;2023-01-04T08:24:33;96719.38;;;5.90;93.76
10978;BME280;5542;48.272;10.794;2023-01-04T08:27:00;96726.91;;;5.94;93.69
10978;BME280;5542;48.272;10.794;2023-01-04T08:29:26;96724.13;;;5.87;94.05
10978;BME280;5542;48.272;10.794;2023-01-04T08:31:53;96726.06;;;5.93;94.05
10978;BME280;5542;48.272;10.794;2023-01-04T08:34:19;96720.19;;;5.91;93.46
10978;BME280;5542;48.272;10.794;2023-01-04T08:36:47;96720.38;;;5.89;94.31
10978;BME280;5542;48.272;10.794;2023-01-04T08:39:14;96722.94;;;5.98;94.02
10978;BME280;5542;48.272;10.794;2023-01-04T08:41:42;96715.69;;;6.08;94.08
10978;BME280;5542;48.272;10.794;2023-01-04T08:44:19;96709.75;;;6.14;92.10
10978;BME280;5542;48.272;10.794;2023-01-04T08:46:46;96713.31;;;6.36;92.58
10978;BME280;5542;48.272;10.794;2023-01-04T08:49:13;96715.03;;;6.44;92.32
10978;BME280;5542;48.272;10.794;2023-01-04T08:51:40;96707.59;;;6.55;92.41
10978;BME280;5542;48.272;10.794;2023-01-04T08:54:07;96711.56;;;6.66;91.16
10978;BME280;5542;48.272;10.794;2023-01-04T08:56:34;96710.75;;;6.65;90.12
10978;BME280;5542;48.272;10.794;2023-01-04T08:59:02;96715.34;;;6.63;89.87
10978;BME280;5542;48.272;10.794;2023-01-04T09:01:30;96718.66;;;6.57;89.61
10978;BME280;5542;48.272;10.794;2023-01-04T09:03:57;96722.28;;;6.56;89.71
10978;BME280;5542;48.272;10.794;2023-01-04T09:06:23;96724.78;;;6.50;89.79
10978;BME280;5542;48.272;10.794;2023-01-04T09:08:50;96716.78;;;6.51;90.22
10978;BME280;5542;48.272;10.794;2023-01-04T09:11:18;96723.69;;;6.44;89.84
10978;BME280;5542;48.272;10.794;2023-01-04T09:13:46;96718.00;;;6.40;90.16
10978;BME280;5542;48.272;10.794;2023-01-04T09:16:15;96718.09;;;6.32;91.15
10978;BME280;5542;48.272;10.794;2023-01-04T09:18:42;96719.06;;;6.31;91.68
10978;BME280;5542;48.272;10.794;2023-01-04T09:21:11;96718.28;;;6.46;90.41
10978;BME280;5542;48.272;10.794;2023-01-04T09:23:39;96724.09;;;6.56;90.35
10978;BME280;5542;48.272;10.794;2023-01-04T09:26:07;96721.00;;;6.52;90.14
10978;BME280;5542;48.272;10.794;2023-01-04T09:28:34;96721.28;;;6.57;90.08
10978;BME280;5542;48.272;10.794;2023-01-04T09:31:04;96715.06;;;6.58;89.51
10978;BME280;5542;48.272;10.794;2023-01-04T09:33:32;96715.25;;;6.57;90.62
10978;BME280;5542;48.272;10.794;2023-01-04T09:36:00;96712.56;;;6.65;90.09
10978;BME280;5542;48.272;10.794;2023-01-04T09:38:27;96709.56;;;6.53;90.99
10978;BME280;5542;48.272;10.794;2023-01-04T09:40:58;96709.75;;;6.81;89.48
10978;BME280;5542;48.272;10.794;2023-01-04T09:43:28;96694.81;;;6.75;88.96
10978;BME280;5542;48.272;10.794;2023-01-04T09:46:07;96688.56;;;6.76;89.83
10978;BME280;5542;48.272;10.794;2023-01-04T09:48:39;96701.19;;;6.73;89.40
10978;BME280;5542;48.272;10.794;2023-01-04T09:51:13;96687.50;;;6.71;88.45
10978;BME280;5542;48.272;10.794;2023-01-04T09:53:43;96697.97;;;6.85;86.68
10978;BME280;5542;48.272;10.794;2023-01-04T09:56:17;96689.66;;;6.82;86.89
10978;BME280;5542;48.272;10.794;2023-01-04T09:58:46;96690.13;;;6.85;85.22
10978;BME280;5542;48.272;10.794;2023-01-04T10:01:15;96689.56;;;6.75;85.67
10978;BME280;5542;48.272;10.794;2023-01-04T10:03:52;96683.63;;;6.81;85.07
10978;BME280;5542;48.272;10.794;2023-01-04T10:06:20;96679.00;;;6.83;85.24
10978;BME280;5542;48.272;10.794;2023-01-04T10:08:47;96670.72;;;6.80;85.75
10978;BME280;5542;48.272;10.794;2023-01-04T10:11:24;96680.91;;;6.89;85.66
10978;BME280;5542;48.272;10.794;2023-01-04T10:14:13;96671.88;;;6.92;84.39
10978;BME280;5542;48.272;10.794;2023-01-04T10:16:55;96668.19;;;6.86;83.92
10978;BME280;5542;48.272;10.794;2023-01-04T10:19:37;96670.00;;;6.86;84.09
10978;BME280;5542;48.272;10.794;2023-01-04T10:22:10;96665.03;;;6.91;83.62
10978;BME280;5542;48.272;10.794;2023-01-04T10:24:46;96670.47;;;6.89;85.03
10978;BME280;5542;48.272;10.794;2023-01-04T10:27:25;96663.22;;;6.91;84.76
10978;BME280;5542;48.272;10.794;2023-01-04T10:30:01;96660.63;;;6.91;84.57
10978;BME280;5542;48.272;10.794;2023-01-04T10:32:34;96647.53;;;6.91;85.44
10978;BME280;5542;48.272;10.794;2023-01-04T10:35:15;96645.56;;;6.93;85.75
10978;BME280;5542;48.272;10.794;2023-01-04T10:37:43;96637.47;;;6.88;85.47
10978;BME280;5542;48.272;10.794;2023-01-04T10:40:14;96619.84;;;6.97;85.69
10978;BME280;5542;48.272;10.794;2023-01-04T10:42:49;96622.44;;;6.97;85.46
10978;BME280;5542;48.272;10.794;2023-01-04T10:45:21;96615.53;;;6.89;85.68
10978;BME280;5542;48.272;10.794;2023-01-04T10:48:00;96602.81;;;6.86;84.17
10978;BME280;5542;48.272;10.794;2023-01-04T10:50:36;96598.22;;;6.88;85.60
10978;BME280;5542;48.272;10.794;2023-01-04T10:53:11;96604.19;;;6.82;85.15
10978;BME280;5542;48.272;10.794;2023-01-04T10:55:43;96603.00;;;6.85;84.80
10978;BME280;5542;48.272;10.794;2023-01-04T10:58:16;96608.50;;;6.90;84.59
10978;BME280;5542;48.272;10.794;2023-01-04T11:00:48;96622.28;;;6.99;84.19
10978;BME280;5542;48.272;10.794;2023-01-04T11:03:20;96632.91;;;6.97;84.01
10978;BME280;5542;48.272;10.794;2023-01-04T11:05:54;96631.28;;;6.96;83.95
10978;BME280;5542;48.272;10.794;2023-01-04T11:08:27;96626.25;;;6.95;83.42
10978;BME280;5542;48.272;10.794;2023-01-04T11:10:59;96617.47;;;7.02;83.32
10978;BME280;5542;48.272;10.794;2023-01-04T11:13:29;96619.41;;;6.93;82.57
10978;BME280;5542;48.272;10.794;2023-01-04T11:15:57;96616.50;;;7.03;82.68
10978;BME280;5542;48.272;10.794;2023-01-04T11:18:25;96608.53;;;7.11;83.59
10978;BME280;5542;48.272;10.794;2023-01-04T11:20:54;96597.09;;;7.12;82.94
10978;BME280;5542;48.272;10.794;2023-01-04T11:23:20;96600.81;;;7.25;81.16
10978;BME280;5542;48.272;10.794;2023-01-04T11:25:50;96597.03;;;7.27;81.59
10978;BME280;5542;48.272;10.794;2023-01-04T11:28:20;96579.69;;;7.26;80.91
10978;BME280;5542;48.272;10.794;2023-01-04T11:30:54;96565.09;;;7.32;79.90
10978;BME280;5542;48.272;10.794;2023-01-04T11:33:23;96576.81;;;7.36;79.67
10978;BME280;5542;48.272;10.794;2023-01-04T11:35:52;96583.75;;;7.29;79.40
10978;BME280;5542;48.272;10.794;2023-01-04T11:38:22;96590.44;;;7.31;79.08
10978;BME280;5542;48.272;10.794;2023-01-04T11:40:58;96593.97;;;7.24;78.82
10978;BME280;5542;48.272;10.794;2023-01-04T11:43:26;96581.34;;;7.27;78.87
10978;BME280;5542;48.272;10.794;2023-01-04T11:45:56;96576.16;;;7.34;79.31
10978;BME280;5542;48.272;10.794;2023-01-04T11:48:34;96565.81;;;7.26;79.14
10978;BME280;5542;48.272;10.794;2023-01-04T11:51:02;96555.78;;;7.29;79.72
10978;BME280;5542;48.272;10.794;2023-01-04T11:53:32;96563.63;;;7.29;79.18
10978;BME280;5542;48.272;10.794;2023-01-04T11:56:14;96557.41;;;7.30;78.79
10978;BME280;5542;48.272;10.794;2023-01-04T11:58:42;96558.59;;;7.28;78.33
10978;BME280;5542;48.272;10.794;2023-01-04T12:01:22;96550.31;;;7.24;78.42
10978;BME280;5542;48.272;10.794;2023-01-04T12:03:49;96551.44;;;7.36;78.70
10978;BME280;5542;48.272;10.794;2023-01-04T12:06:19;96540.78;;;7.38;77.91
10978;BME280;5542;48.272;10.794;2023-01-04T12:08:48;96535.97;;;7.41;79.00
10978;BME280;5542;48.272;10.794;2023-01-04T12:11:19;96524.50;;;7.42;77.21
10978;BME280;5542;48.272;10.794;2023-01-04T12:13:50;96528.94;;;7.42;76.91
10978;BME280;5542;48.272;10.794;2023-01-04T12:16:23;96527.88;;;7.36;76.32
10978;BME280;5542;48.272;10.794;2023-01-04T12:18:52;96515.22;;;7.40;75.96
10978;BME280;5542;48.272;10.794;2023-01-04T12:21:20;96506.78;;;7.44;76.12
10978;BME280;5542;48.272;10.794;2023-01-04T12:23:49;96498.84;;;7.59;74.98
10978;BME280;5542;48.272;10.794;2023-01-04T12:26:16;96496.19;;;7.53;73.69
10978;BME280;5542;48.272;10.794;2023-01-04T12:28:45;96502.94;;;7.40;74.33
10978;BME280;5542;48.272;10.794;2023-01-04T12:31:30;96493.47;;;7.39;74.98
10978;BME280;5542;48.272;10.794;2023-01-04T12:33:58;96501.63;;;7.51;75.21
10978;BME280;5542;48.272;10.794;2023-01-04T12:36:54;96504.84;;;7.53;73.93
10978;BME280;5542;48.272;10.794;2023-01-04T12:39:41;96508.34;;;7.60;72.70
10978;BME280;5542;48.272;10.794;2023-01-04T12:42:13;96502.53;;;7.65;72.82
10978;BME280;5542;48.272;10.794;2023-01-04T12:47:50;96494.13;;;7.69;72.29
10978;BME280;5542;48.272;10.794;2023-01-04T12:53:57;96481.25;;;7.75;72.56
10978;BME280;5542;48.272;10.794;2023-01-04T12:59:35;96486.97;;;7.85;72.84
10978;BME280;5542;48.272;10.794;2023-01-04T13:02:18;96496.28;;;7.94;72.24
10978;BME280;5542;48.272;10.794;2023-01-04T13:04:45;96493.09;;;7.99;71.47
10978;BME280;5542;48.272;10.794;2023-01-04T13:07:17;96494.50;;;8.01;71.83
10978;BME280;5542;48.272;10.794;2023-01-04T13:09:50;96487.72;;;8.13;70.50
10978;BME280;5542;48.272;10.794;2023-01-04T13:12:43;96498.19;;;8.13;72.04
10978;BME280;5542;48.272;10.794;2023-01-04T13:15:20;96499.09;;;8.27;70.97
10978;BME280;5542;48.272;10.794;2023-01-04T13:17:47;96492.03;;;8.34;70.83
10978;BME280;5542;48.272;10.794;2023-01-04T13:20:16;96490.00;;;8.23;70.74
10978;BME280;5542;48.272;10.794;2023-01-04T13:22:48;96483.34;;;8.27;70.86
10978;BME280;5542;48.272;10.794;2023-01-04T13:25:17;96485.56;;;8.24;71.36
10978;BME280;5542;48.272;10.794;2023-01-04T13:27:56;96481.75;;;8.33;70.64
10978;BME280;5542;48.272;10.794;2023-01-04T13:30:29;96477.94;;;8.35;69.87
10978;BME280;5542;48.272;10.794;2023-01-04T13:32:58;96471.88;;;8.28;69.42
10978;BME280;5542;48.272;10.794;2023-01-04T13:35:24;96480.50;;;8.22;70.50